createdAt,value
2019-03-20T00:03:30.618Z,3.90
2019-03-20T00:08:25.198Z,4.23
2019-03-20T00:13:19.764Z,4.10
2019-03-20T00:18:14.362Z,4.07
2019-03-20T00:23:09.005Z,3.90
2019-03-20T00:28:03.673Z,4.80
2019-03-20T00:32:58.244Z,4.33
2019-03-20T00:37:52.902Z,4.33
2019-03-20T00:42:47.807Z,4.30
2019-03-20T00:47:42.462Z,5.10
2019-03-20T00:52:37.027Z,4.87
2019-03-20T00:57:31.613Z,4.90
2019-03-20T01:02:26.186Z,4.10
2019-03-20T01:07:20.851Z,4.40
2019-03-20T01:12:17.615Z,4.63
2019-03-20T01:17:11.760Z,4.93
2019-03-20T01:22:06.425Z,4.70
2019-03-20T01:27:01.035Z,4.77
2019-03-20T01:31:55.598Z,5.37
2019-03-20T01:36:50.201Z,4.97
2019-03-20T01:41:44.773Z,5.10
2019-03-20T01:46:39.372Z,5.03
2019-03-20T01:51:33.952Z,5.03
2019-03-20T01:56:28.544Z,4.77
2019-03-20T02:01:23.122Z,4.73
2019-03-20T02:06:17.814Z,5.30
2019-03-20T02:11:12.394Z,5.67
2019-03-20T02:16:06.993Z,7.07
2019-03-20T02:21:01.630Z,6.37
2019-03-20T02:25:56.233Z,6.97
2019-03-20T02:30:50.815Z,6.87
2019-03-20T02:35:51.689Z,6.70
2019-03-20T02:40:41.742Z,7.60
2019-03-20T02:45:36.346Z,7.00
2019-03-20T02:50:30.931Z,7.20
2019-03-20T02:55:25.597Z,6.53
2019-03-20T03:00:23.393Z,6.90
2019-03-20T03:05:19.725Z,7.70
2019-03-20T03:10:18.787Z,7.07
2019-03-20T03:15:15.304Z,7.50
2019-03-20T03:20:16.355Z,8.30
2019-03-20T03:25:12.865Z,8.07
2019-03-20T03:30:19.852Z,7.53
2019-03-20T03:35:18.205Z,8.50
2019-03-20T03:40:17.221Z,7.33
2019-03-20T03:45:18.475Z,7.03
2019-03-20T03:50:13.561Z,7.70
2019-03-20T03:55:11.542Z,8.27
2019-03-20T04:00:18.531Z,8.50
2019-03-20T04:05:13.969Z,8.17
2019-03-20T04:10:12.277Z,9.20
2019-03-20T04:15:11.276Z,9.00
2019-03-20T04:20:15.563Z,9.47
2019-03-20T04:25:11.752Z,8.83
2019-03-20T04:30:13.181Z,8.60
2019-03-20T04:35:08.808Z,9.00
2019-03-20T04:40:03.669Z,9.60
2019-03-20T04:44:58.259Z,10.67
2019-03-20T04:49:52.857Z,11.00
2019-03-20T04:54:47.444Z,9.83
2019-03-20T04:59:42.108Z,8.67
2019-03-20T05:04:36.712Z,9.33
2019-03-20T05:09:31.311Z,9.70
2019-03-20T05:14:25.889Z,9.73
2019-03-20T05:19:20.481Z,13.17
2019-03-20T05:24:15.110Z,11.03
2019-03-20T05:29:09.695Z,10.47
2019-03-20T05:34:04.309Z,10.30
2019-03-20T05:38:58.993Z,10.50
2019-03-20T05:43:53.566Z,9.93
2019-03-20T05:48:48.157Z,10.33
2019-03-20T05:53:42.778Z,11.03
2019-03-20T05:58:37.371Z,10.90
2019-03-20T06:03:31.946Z,10.33
2019-03-20T06:08:26.567Z,10.27
2019-03-20T06:13:21.156Z,8.73
2019-03-20T06:18:15.754Z,9.07
2019-03-20T06:23:11.272Z,9.50
2019-03-20T06:28:05.897Z,10.90
2019-03-20T06:33:00.509Z,9.37
2019-03-20T06:37:55.127Z,9.33
2019-03-20T06:42:49.730Z,9.17
2019-03-20T06:47:44.394Z,8.50
2019-03-20T06:52:38.989Z,9.23
2019-03-20T06:57:33.574Z,9.40
2019-03-20T07:02:27.885Z,12.97
2019-03-20T07:07:43.201Z,10.07
2019-03-20T07:12:29.030Z,8.93
2019-03-20T07:17:23.808Z,10.33
2019-03-20T07:22:18.394Z,9.67
2019-03-20T07:27:12.977Z,9.73
2019-03-20T07:32:07.631Z,9.63
2019-03-20T07:37:02.312Z,10.27
2019-03-20T07:41:56.911Z,10.07
2019-03-20T07:46:51.477Z,10.23
2019-03-20T07:51:46.148Z,10.10
2019-03-20T07:56:42.159Z,9.93
2019-03-20T08:01:41.073Z,8.27
2019-03-20T08:06:35.657Z,8.40
2019-03-20T08:11:30.246Z,9.20
2019-03-20T08:16:30.813Z,7.80
2019-03-20T08:21:25.448Z,7.57
2019-03-20T08:26:20.558Z,7.97
2019-03-20T08:31:15.160Z,7.10
2019-03-20T08:36:17.264Z,7.20
2019-03-20T08:41:16.072Z,8.17
2019-03-20T08:46:10.806Z,7.50
2019-03-20T08:51:05.704Z,8.17
2019-03-20T08:56:00.475Z,8.13
2019-03-20T09:01:03.989Z,7.90
2019-03-20T09:06:01.245Z,5.87
2019-03-20T09:11:02.765Z,6.70
2019-03-20T09:16:02.959Z,7.00
2019-03-20T09:21:03.082Z,6.10
2019-03-20T09:26:03.563Z,7.47
2019-03-20T09:31:04.724Z,6.80
2019-03-20T09:36:04.530Z,6.73
2019-03-20T09:40:59.504Z,7.10
2019-03-20T09:45:54.219Z,7.20
2019-03-20T09:50:52.180Z,6.70
2019-03-20T09:55:47.028Z,7.30
2019-03-20T10:00:41.716Z,7.50
2019-03-20T10:05:36.454Z,7.90
2019-03-20T10:10:32.291Z,6.90
2019-03-20T10:15:31.483Z,6.77
2019-03-20T10:20:26.749Z,6.57
2019-03-20T10:25:21.471Z,6.47
2019-03-20T10:30:29.809Z,6.00
2019-03-20T10:35:24.520Z,6.43
2019-03-20T10:40:24.964Z,5.50
2019-03-20T10:45:20.386Z,5.83
2019-03-20T10:50:26.867Z,5.80
2019-03-20T10:55:21.665Z,6.00
2019-03-20T11:00:24.066Z,5.97
2019-03-20T11:05:19.577Z,5.50
2019-03-20T11:10:23.853Z,5.63
2019-03-20T11:15:23.127Z,6.30
2019-03-20T11:20:25.279Z,6.00
2019-03-20T11:25:30.489Z,6.30
2019-03-20T11:30:27.759Z,5.40
2019-03-20T11:35:22.967Z,5.43
2019-03-20T11:40:24.745Z,4.13
2019-03-20T11:45:19.817Z,4.30
2019-03-20T11:50:19.119Z,3.97
2019-03-20T11:55:14.755Z,3.77
2019-03-20T12:00:19.043Z,3.50
2019-03-20T12:05:13.938Z,3.70
2019-03-20T12:10:16.136Z,3.23
2019-03-20T12:15:16.977Z,3.23
2019-03-20T12:20:18.850Z,3.50
2019-03-20T12:25:26.402Z,3.90
2019-03-20T12:30:25.231Z,3.50
2019-03-20T12:35:21.171Z,3.60
2019-03-20T12:40:28.506Z,3.73
2019-03-20T12:45:29.982Z,2.73
2019-03-20T12:50:24.623Z,2.60
2019-03-20T12:55:20.806Z,2.57
2019-03-20T13:00:22.359Z,2.70
2019-03-20T13:05:17.365Z,2.43
2019-03-20T13:10:19.483Z,2.70
2019-03-20T13:15:28.163Z,2.60
2019-03-20T13:20:23.533Z,2.30
2019-03-20T13:25:18.921Z,2.20
2019-03-20T13:30:20.961Z,2.57
2019-03-20T13:35:15.723Z,2.93
2019-03-20T13:40:14.934Z,2.63
2019-03-20T13:45:16.363Z,2.70
2019-03-20T13:50:15.198Z,3.73
2019-03-20T13:55:15.361Z,3.73
2019-03-20T14:00:26.720Z,3.77
2019-03-20T14:05:21.803Z,3.40
2019-03-20T14:10:25.003Z,3.13
2019-03-20T14:15:18.482Z,3.87
2019-03-20T14:20:20.069Z,3.33
2019-03-20T14:25:15.470Z,3.90
2019-03-20T14:30:25.985Z,3.80
2019-03-20T14:35:20.834Z,3.70
2019-03-20T14:40:36.257Z,3.40
2019-03-20T14:45:27.451Z,3.40
2019-03-20T14:50:27.091Z,4.20
2019-03-20T14:55:21.776Z,3.40
2019-03-20T15:00:22.766Z,3.37
2019-03-20T15:05:17.517Z,3.50
2019-03-20T15:10:24.872Z,3.37
2019-03-20T15:15:24.201Z,3.30
2019-03-20T15:20:19.109Z,3.40
2019-03-20T15:25:15.105Z,3.20
2019-03-20T15:30:20.178Z,3.50
2019-03-20T15:35:14.980Z,3.90
2019-03-20T15:40:16.476Z,4.07
2019-03-20T15:45:19.451Z,4.20
2019-03-20T15:50:23.948Z,3.70
2019-03-20T15:55:37.559Z,4.00
2019-03-20T16:00:32.251Z,4.50
2019-03-20T16:05:26.869Z,4.10
2019-03-20T16:10:23.917Z,3.53
2019-03-20T16:15:22.195Z,3.90
2019-03-20T16:20:17.846Z,3.77
2019-03-20T16:25:21.955Z,3.90
2019-03-20T16:30:23.145Z,3.90
2019-03-20T16:35:17.852Z,4.27
2019-03-20T16:40:30.499Z,4.60
2019-03-20T16:45:32.472Z,3.90
2019-03-20T16:50:27.237Z,4.73
2019-03-20T16:55:21.900Z,4.37
2019-03-20T17:00:29.377Z,3.80
2019-03-20T17:05:24.474Z,3.70
2019-03-20T17:10:31.494Z,3.57
2019-03-20T17:15:34.400Z,4.70
2019-03-20T17:20:29.139Z,3.87
2019-03-20T17:25:23.790Z,3.77
2019-03-20T17:30:22.169Z,4.40
2019-03-20T17:35:16.901Z,3.97
2019-03-20T17:40:19.178Z,4.17
2019-03-20T17:45:20.483Z,3.87
2019-03-20T17:50:25.418Z,4.00
2019-03-20T17:55:20.129Z,3.60
2019-03-20T18:00:28.508Z,3.60
2019-03-20T18:05:23.091Z,3.57
2019-03-20T18:10:17.695Z,3.90
2019-03-20T18:15:15.885Z,3.67
2019-03-20T18:20:14.497Z,3.97
2019-03-20T18:25:12.283Z,3.97
2019-03-20T18:30:25.313Z,4.80
2019-03-20T18:35:20.146Z,4.63
2019-03-20T18:40:27.158Z,4.40
2019-03-20T18:45:24.635Z,4.87
2019-03-20T18:50:21.451Z,4.60
2019-03-20T18:55:18.239Z,5.00
2019-03-20T19:00:26.569Z,4.33
2019-03-20T19:05:31.840Z,5.03
2019-03-20T19:10:26.397Z,4.40
2019-03-20T19:15:21.218Z,4.57
2019-03-20T19:20:16.626Z,4.90
2019-03-20T19:25:17.671Z,4.00
2019-03-20T19:30:26.723Z,4.67
2019-03-20T19:35:21.553Z,4.63
2019-03-20T19:40:19.159Z,4.53
2019-03-20T19:45:18.553Z,4.60
2019-03-20T19:50:25.096Z,4.60
2019-03-20T19:55:19.915Z,4.53
2019-03-20T20:00:21.283Z,4.57
2019-03-20T20:05:16.429Z,4.97
2019-03-20T20:10:19.345Z,4.47
2019-03-20T20:15:33.471Z,4.47
2019-03-20T20:20:40.289Z,4.43
2019-03-20T20:25:34.864Z,4.63
2019-03-20T20:30:29.458Z,4.30
2019-03-20T20:35:24.138Z,4.90
2019-03-20T20:40:22.425Z,4.30
2019-03-20T20:45:17.018Z,4.47
2019-03-20T20:50:14.735Z,4.80
2019-03-20T20:55:22.163Z,4.77
2019-03-20T21:00:25.080Z,4.27
2019-03-20T21:05:19.835Z,4.37
2019-03-20T21:10:20.612Z,4.33
2019-03-20T21:15:34.913Z,3.93
2019-03-20T21:20:29.540Z,4.20
2019-03-20T21:25:24.147Z,4.03
2019-03-20T21:30:40.186Z,4.47
2019-03-20T21:35:59.916Z,4.40
2019-03-20T21:41:30.713Z,4.37
2019-03-20T21:46:47.950Z,4.30
2019-03-20T21:51:42.541Z,4.27
2019-03-20T21:57:07.159Z,4.47
2019-03-20T22:02:40.602Z,4.47
2019-03-20T22:07:35.180Z,4.40
2019-03-20T22:12:34.392Z,5.10
2019-03-20T22:18:05.030Z,4.40
2019-03-20T22:23:40.042Z,4.43
2019-03-20T22:28:58.761Z,4.83
2019-03-20T22:34:46.578Z,4.43
2019-03-20T22:40:17.803Z,4.90
2019-03-20T22:46:05.392Z,4.93
2019-03-20T22:51:07.012Z,4.60
2019-03-20T22:56:22.470Z,4.87
2019-03-20T23:01:24.440Z,4.80
2019-03-20T23:06:19.251Z,4.60
2019-03-20T23:11:13.830Z,4.90
2019-03-20T23:16:12.635Z,4.83
2019-03-20T23:21:07.280Z,5.00
2019-03-20T23:26:01.886Z,4.80
2019-03-20T23:30:56.461Z,5.27
2019-03-20T23:35:51.047Z,5.13
2019-03-20T23:40:45.615Z,4.70
2019-03-20T23:45:40.230Z,4.60
2019-03-20T23:50:34.821Z,4.87
2019-03-20T23:55:29.412Z,4.90
